createdAt,value
2022-08-24T00:00:35.562Z,4.20
2022-08-24T00:02:38.954Z,4.35
2022-08-24T00:04:42.345Z,4.28
2022-08-24T00:06:50.044Z,3.53
2022-08-24T00:08:56.405Z,4.18
2022-08-24T00:10:59.895Z,3.70
2022-08-24T00:13:03.431Z,4.20
2022-08-24T00:15:09.145Z,3.50
2022-08-24T00:17:12.944Z,3.97
2022-08-24T00:19:17.366Z,4.38
2022-08-24T00:21:20.939Z,4.00
2022-08-24T00:23:24.166Z,3.90
2022-08-24T00:25:29.029Z,4.25
2022-08-24T00:27:32.396Z,4.20
2022-08-24T00:29:36.335Z,4.28
2022-08-24T00:31:39.933Z,3.83
2022-08-24T00:33:43.488Z,3.95
2022-08-24T00:35:46.769Z,4.18
2022-08-24T00:37:51.492Z,3.92
2022-08-24T00:39:54.867Z,4.40
2022-08-24T00:42:00.716Z,4.20
2022-08-24T00:44:06.710Z,4.18
2022-08-24T00:46:18.699Z,4.30
2022-08-24T00:48:27.069Z,4.10
2022-08-24T00:50:36.728Z,4.30
2022-08-24T00:52:45.048Z,5.18
2022-08-24T00:54:52.525Z,4.35
2022-08-24T00:57:02.043Z,3.92
2022-08-24T00:59:11.415Z,4.10
2022-08-24T01:01:15.391Z,3.85
2022-08-24T01:03:19.829Z,3.72
2022-08-24T01:05:23.245Z,3.45
2022-08-24T01:07:29.405Z,2.88
2022-08-24T01:09:32.919Z,3.30
2022-08-24T01:11:36.759Z,2.65
2022-08-24T01:13:43.423Z,2.72
2022-08-24T01:15:49.993Z,2.65
2022-08-24T01:18:10.978Z,2.10
2022-08-24T01:20:14.875Z,2.15
2022-08-24T01:22:41.060Z,2.45
2022-08-24T01:24:47.464Z,2.28
2022-08-24T01:26:52.139Z,2.05
2022-08-24T01:29:01.387Z,1.73
2022-08-24T01:31:05.646Z,2.30
2022-08-24T01:33:11.019Z,1.65
2022-08-24T01:35:14.244Z,2.00
2022-08-24T01:37:17.829Z,2.10
2022-08-24T01:39:25.659Z,1.90
2022-08-24T01:41:30.445Z,2.10
2022-08-24T01:43:37.324Z,2.20
2022-08-24T01:45:43.745Z,2.00
2022-08-24T01:47:47.326Z,2.38
2022-08-24T01:49:51.255Z,2.60
2022-08-24T01:51:58.597Z,2.40
2022-08-24T01:54:03.160Z,2.60
2022-08-24T01:56:07.112Z,1.92
2022-08-24T01:58:12.859Z,1.83
2022-08-24T02:00:18.611Z,1.98
2022-08-24T02:02:26.903Z,1.80
2022-08-24T02:04:30.235Z,2.15
2022-08-24T02:06:33.647Z,2.03
2022-08-24T02:08:37.161Z,1.90
2022-08-24T02:10:40.557Z,2.40
2022-08-24T02:12:58.093Z,2.03
2022-08-24T02:15:03.737Z,1.63
2022-08-24T02:17:08.355Z,2.08
2022-08-24T02:19:12.061Z,1.92
2022-08-24T02:21:16.973Z,1.95
2022-08-24T02:23:20.991Z,1.88
2022-08-24T02:25:25.928Z,1.50
2022-08-24T02:27:29.364Z,1.63
2022-08-24T02:29:32.779Z,1.80
2022-08-24T02:31:38.125Z,1.70
2022-08-24T02:33:42.566Z,2.03
2022-08-24T02:35:46.576Z,1.55
2022-08-24T02:37:50.051Z,1.67
2022-08-24T02:39:53.538Z,1.80
2022-08-24T02:41:58.800Z,1.92
2022-08-24T02:44:02.630Z,2.22
2022-08-24T02:46:06.687Z,2.15
2022-08-24T02:48:19.477Z,2.47
2022-08-24T02:50:23.035Z,2.90
2022-08-24T02:52:26.488Z,3.35
2022-08-24T02:54:30.270Z,3.50
2022-08-24T02:56:33.734Z,3.40
2022-08-24T02:58:37.032Z,3.15
2022-08-24T03:00:41.825Z,3.70
2022-08-24T03:02:45.770Z,2.72
2022-08-24T03:04:50.683Z,3.08
2022-08-24T03:06:54.380Z,3.10
2022-08-24T03:08:57.982Z,2.47
2022-08-24T03:11:01.451Z,2.60
2022-08-24T03:13:05.110Z,2.40
2022-08-24T03:15:11.485Z,2.10
2022-08-24T03:17:15.138Z,1.70
2022-08-24T03:19:18.426Z,1.95
2022-08-24T03:21:23.772Z,1.90
2022-08-24T03:23:28.058Z,1.52
2022-08-24T03:25:37.723Z,1.75
2022-08-24T03:27:41.023Z,3.25
2022-08-24T03:29:44.756Z,2.33
2022-08-24T03:31:48.513Z,2.05
2022-08-24T03:33:52.022Z,1.88
2022-08-24T03:35:55.850Z,1.70
2022-08-24T03:38:01.297Z,2.00
2022-08-24T03:40:05.576Z,1.65
2022-08-24T03:42:10.271Z,1.90
2022-08-24T03:44:13.670Z,1.90
2022-08-24T03:46:20.530Z,2.03
2022-08-24T03:48:24.402Z,1.80
2022-08-24T03:50:28.243Z,2.45
2022-08-24T03:52:33.872Z,2.00
2022-08-24T03:54:39.222Z,1.95
2022-08-24T03:56:42.619Z,1.80
2022-08-24T03:58:46.643Z,1.95
2022-08-24T04:00:50.153Z,2.17
2022-08-24T04:02:53.637Z,1.80
2022-08-24T04:04:58.863Z,1.80
2022-08-24T04:07:02.237Z,2.00
2022-08-24T04:09:08.077Z,1.88
2022-08-24T04:11:19.713Z,2.20
2022-08-24T04:13:22.947Z,1.90
2022-08-24T04:15:26.252Z,1.65
2022-08-24T04:17:31.942Z,1.70
2022-08-24T04:19:36.293Z,2.25
2022-08-24T04:21:40.077Z,1.50
2022-08-24T04:23:46.810Z,1.67
2022-08-24T04:25:51.570Z,1.67
2022-08-24T04:27:56.301Z,1.75
2022-08-24T04:30:00.358Z,1.60
2022-08-24T04:32:09.751Z,1.60
2022-08-24T04:34:14.511Z,1.60
2022-08-24T04:36:20.891Z,1.60
2022-08-24T04:38:25.396Z,1.60
2022-08-24T04:40:49.733Z,1.52
2022-08-24T04:42:55.280Z,1.50
2022-08-24T04:44:59.578Z,1.60
2022-08-24T04:47:02.967Z,1.70
2022-08-24T04:49:06.387Z,2.70
2022-08-24T04:51:14.139Z,2.45
2022-08-24T04:53:18.273Z,2.35
2022-08-24T04:55:24.971Z,2.28
2022-08-24T04:57:28.308Z,2.20
2022-08-24T04:59:35.043Z,2.33
2022-08-24T05:01:38.448Z,2.40
2022-08-24T05:03:44.770Z,2.70
2022-08-24T05:05:50.936Z,2.58
2022-08-24T05:07:56.709Z,3.55
2022-08-24T05:10:00.275Z,3.58
2022-08-24T05:12:03.609Z,3.83
2022-08-24T05:14:11.629Z,4.40
2022-08-24T05:16:18.876Z,4.57
2022-08-24T05:18:23.152Z,3.60
2022-08-24T05:20:26.420Z,4.45
2022-08-24T05:22:30.101Z,4.47
2022-08-24T05:24:34.661Z,4.38
2022-08-24T05:26:39.227Z,4.63
2022-08-24T05:28:43.712Z,4.00
2022-08-24T05:30:47.082Z,4.30
2022-08-24T05:32:55.746Z,4.45
2022-08-24T05:35:01.464Z,3.83
2022-08-24T05:37:06.485Z,2.78
2022-08-24T05:39:24.509Z,3.08
2022-08-24T05:41:31.708Z,3.42
2022-08-24T05:43:44.227Z,3.33
2022-08-24T05:45:47.599Z,2.30
2022-08-24T05:47:50.947Z,2.40
2022-08-24T05:50:21.693Z,2.13
2022-08-24T05:52:25.277Z,2.47
2022-08-24T05:54:28.569Z,2.30
2022-08-24T05:56:35.145Z,2.47
2022-08-24T05:58:39.398Z,2.45
2022-08-24T06:00:45.675Z,3.10
2022-08-24T06:02:53.073Z,2.70
2022-08-24T06:04:58.031Z,2.63
2022-08-24T06:07:02.762Z,2.60
2022-08-24T06:09:07.756Z,2.53
2022-08-24T06:11:13.289Z,3.47
2022-08-24T06:13:17.457Z,1.90
2022-08-24T06:15:22.180Z,2.10
2022-08-24T06:17:27.193Z,2.70
2022-08-24T06:19:30.553Z,1.70
2022-08-24T06:21:34.464Z,1.90
2022-08-24T06:23:40.449Z,1.88
2022-08-24T06:26:02.345Z,1.67
2022-08-24T06:28:05.737Z,1.90
2022-08-24T06:30:11.577Z,1.75
2022-08-24T06:32:17.757Z,1.80
2022-08-24T06:34:21.345Z,1.90
2022-08-24T06:36:24.818Z,1.95
2022-08-24T06:38:29.084Z,2.03
2022-08-24T06:40:34.086Z,1.85
2022-08-24T06:42:37.612Z,2.03
2022-08-24T06:44:53.118Z,1.73
2022-08-24T06:46:59.348Z,2.10
2022-08-24T06:49:03.234Z,2.35
2022-08-24T06:51:12.446Z,2.20
2022-08-24T06:53:16.305Z,1.90
2022-08-24T06:55:20.395Z,2.20
2022-08-24T06:57:25.424Z,1.58
2022-08-24T06:59:29.717Z,1.70
2022-08-24T07:01:33.171Z,2.08
2022-08-24T07:03:37.593Z,2.33
2022-08-24T07:05:57.904Z,2.20
2022-08-24T07:08:16.232Z,2.30
2022-08-24T07:10:22.959Z,2.13
2022-08-24T07:12:30.405Z,2.10
2022-08-24T07:14:34.142Z,2.33
2022-08-24T07:16:39.283Z,1.70
2022-08-24T07:18:49.387Z,3.05
2022-08-24T07:20:56.863Z,3.08
2022-08-24T07:23:07.627Z,2.70
2022-08-24T07:25:13.690Z,1.80
2022-08-24T07:27:18.161Z,2.05
2022-08-24T07:29:47.272Z,1.65
2022-08-24T07:31:49.288Z,1.80
2022-08-24T07:34:11.728Z,2.45
2022-08-24T07:36:22.127Z,2.30
2022-08-24T07:38:26.616Z,2.33
2022-08-24T07:40:36.513Z,2.03
2022-08-24T07:42:55.983Z,1.80
2022-08-24T07:45:02.631Z,2.28
2022-08-24T07:47:27.538Z,2.22
2022-08-24T07:49:37.145Z,1.45
2022-08-24T07:51:44.902Z,2.25
2022-08-24T07:53:53.939Z,1.80
2022-08-24T07:56:04.710Z,1.95
2022-08-24T07:58:10.016Z,1.73
2022-08-24T08:00:19.786Z,1.63
2022-08-24T08:02:30.806Z,1.60
2022-08-24T08:04:40.475Z,1.63
2022-08-24T08:06:44.824Z,2.00
2022-08-24T08:08:48.616Z,1.55
2022-08-24T08:10:52.502Z,2.35
2022-08-24T08:12:56.549Z,1.63
2022-08-24T08:15:00.126Z,1.50
2022-08-24T08:17:05.667Z,1.52
2022-08-24T08:19:10.451Z,1.92
2022-08-24T08:21:31.458Z,1.63
2022-08-24T08:23:54.273Z,1.45
2022-08-24T08:26:09.025Z,1.48
2022-08-24T08:28:35.449Z,1.60
2022-08-24T08:30:42.192Z,2.00
2022-08-24T08:32:47.721Z,1.73
2022-08-24T08:34:51.364Z,1.38
2022-08-24T08:36:55.557Z,1.52
2022-08-24T08:39:00.377Z,1.50
2022-08-24T08:41:24.472Z,1.33
2022-08-24T08:43:57.586Z,1.38
2022-08-24T08:46:17.792Z,2.40
2022-08-24T08:49:04.487Z,1.60
2022-08-24T08:52:00.605Z,1.35
2022-08-24T08:54:39.480Z,1.40
2022-08-24T08:57:11.593Z,2.25
2022-08-24T08:59:31.517Z,2.03
2022-08-24T09:01:49.330Z,1.88
2022-08-24T09:04:25.380Z,1.83
2022-08-24T09:07:09.900Z,1.35
2022-08-24T09:09:49.655Z,1.60
2022-08-24T09:12:02.308Z,1.35
2022-08-24T09:14:21.434Z,1.52
2022-08-24T09:16:36.362Z,1.60
2022-08-24T09:18:57.016Z,1.40
2022-08-24T09:21:37.048Z,2.10
2022-08-24T09:23:55.510Z,1.27
2022-08-24T09:26:05.905Z,1.60
2022-08-24T09:28:17.286Z,1.55
2022-08-24T09:30:24.011Z,1.40
2022-08-24T09:32:39.107Z,1.90
2022-08-24T09:34:54.362Z,1.60
2022-08-24T09:37:09.729Z,1.50
2022-08-24T09:39:37.036Z,1.52
2022-08-24T09:42:20.831Z,2.75
2022-08-24T09:45:06.690Z,2.00
2022-08-24T09:47:59.187Z,2.92
2022-08-24T09:50:21.381Z,1.73
2022-08-24T09:55:24.295Z,1.65
2022-08-24T09:58:01.816Z,1.63
2022-08-24T10:00:13.933Z,1.58
2022-08-24T10:02:38.446Z,1.45
2022-08-24T10:04:52.459Z,1.63
2022-08-24T10:07:08.381Z,1.40
2022-08-24T10:09:53.203Z,1.63
2022-08-24T10:12:05.906Z,1.50
2022-08-24T10:14:20.535Z,1.50
2022-08-24T10:16:39.736Z,1.60
2022-08-24T10:18:56.394Z,1.45
2022-08-24T10:21:15.372Z,1.73
2022-08-24T10:23:42.270Z,1.30
2022-08-24T10:25:54.611Z,1.10
2022-08-24T10:28:07.681Z,1.23
2022-08-24T10:32:50.061Z,2.53
2022-08-24T10:35:05.336Z,2.03
2022-08-24T10:37:42.319Z,1.23
2022-08-24T10:40:13.506Z,1.40
2022-08-24T10:43:05.988Z,1.50
2022-08-24T10:45:21.595Z,1.35
2022-08-24T10:47:31.115Z,1.25
2022-08-24T10:50:32.371Z,1.65
2022-08-24T10:52:54.738Z,1.25
2022-08-24T10:55:12.536Z,1.73
2022-08-24T10:57:28.702Z,1.33
2022-08-24T10:59:38.646Z,1.70
2022-08-24T11:02:11.911Z,1.77
2022-08-24T11:04:30.165Z,1.52
2022-08-24T11:06:37.312Z,1.67
2022-08-24T11:08:54.443Z,1.92
2022-08-24T11:11:10.397Z,1.67
2022-08-24T11:13:23.568Z,1.38
2022-08-24T11:17:35.114Z,1.60
2022-08-24T11:19:40.009Z,1.48
2022-08-24T11:21:50.663Z,1.48
2022-08-24T11:23:54.166Z,1.70
2022-08-24T11:26:03.925Z,1.70
2022-08-24T11:28:15.396Z,1.75
2022-08-24T11:30:26.772Z,1.52
2022-08-24T11:32:34.667Z,1.23
2022-08-24T11:34:41.138Z,1.65
2022-08-24T11:36:44.989Z,1.48
2022-08-24T11:38:48.814Z,1.40
2022-08-24T11:40:56.034Z,1.33
2022-08-24T11:43:13.567Z,1.30
2022-08-24T11:45:26.153Z,1.65
2022-08-24T11:47:43.253Z,1.60
2022-08-24T11:49:56.593Z,1.30
2022-08-24T11:52:09.434Z,1.10
2022-08-24T11:54:24.979Z,1.48
2022-08-24T11:56:37.904Z,2.17
2022-08-24T11:58:51.374Z,1.55
2022-08-24T12:01:02.498Z,1.90
2022-08-24T12:03:16.043Z,1.55
2022-08-24T12:05:27.733Z,1.50
2022-08-24T12:07:44.823Z,1.80
2022-08-24T12:12:14.798Z,2.03
2022-08-24T12:14:24.690Z,2.13
2022-08-24T12:16:35.628Z,1.95
2022-08-24T12:18:52.479Z,2.17
2022-08-24T12:20:58.867Z,2.13
2022-08-24T12:23:07.708Z,1.98
2022-08-24T12:25:27.811Z,2.22
2022-08-24T12:27:35.580Z,2.40
2022-08-24T12:29:44.885Z,1.42
2022-08-24T12:31:54.425Z,1.58
2022-08-24T12:34:02.242Z,1.50
2022-08-24T12:36:15.095Z,2.10
2022-08-24T12:38:25.281Z,1.65
2022-08-24T12:40:33.608Z,1.77
2022-08-24T12:42:51.284Z,2.25
2022-08-24T12:45:01.171Z,1.80
2022-08-24T12:47:05.069Z,1.63
2022-08-24T12:49:16.554Z,1.52
2022-08-24T12:51:28.086Z,1.67
2022-08-24T12:54:13.474Z,1.70
2022-08-24T12:56:40.299Z,1.60
2022-08-24T12:58:59.075Z,1.70
2022-08-24T13:01:06.771Z,1.60
2022-08-24T13:03:27.313Z,1.77
2022-08-24T13:05:43.096Z,1.52
2022-08-24T13:07:50.508Z,1.48
2022-08-24T13:10:09.550Z,1.58
2022-08-24T13:12:50.170Z,1.40
2022-08-24T13:14:54.106Z,1.70
2022-08-24T13:17:14.761Z,1.17
2022-08-24T13:19:33.029Z,1.70
2022-08-24T13:21:47.402Z,1.33
2022-08-24T13:24:31.435Z,1.60
2022-08-24T13:28:45.649Z,1.50
2022-08-24T13:31:01.360Z,1.58
2022-08-24T13:33:11.492Z,1.38
2022-08-24T13:35:37.247Z,1.40
2022-08-24T13:37:41.672Z,5.38
2022-08-24T13:40:08.341Z,1.65
2022-08-24T13:42:38.140Z,1.38
2022-08-24T13:45:01.175Z,1.15
2022-08-24T13:47:13.892Z,1.50
2022-08-24T13:49:34.410Z,1.30
2022-08-24T13:51:46.277Z,1.20
2022-08-24T13:54:04.278Z,1.20
2022-08-24T13:56:33.532Z,1.50
2022-08-24T13:58:44.123Z,1.23
2022-08-24T14:00:53.216Z,1.00
2022-08-24T14:03:11.020Z,1.17
2022-08-24T14:05:26.326Z,1.00
2022-08-24T14:07:34.892Z,1.20
2022-08-24T14:09:49.184Z,1.20
2022-08-24T14:12:19.407Z,1.30
2022-08-24T14:14:39.994Z,1.35
2022-08-24T14:17:19.473Z,1.15
2022-08-24T14:19:32.362Z,1.10
2022-08-24T14:21:41.426Z,0.90
2022-08-24T14:23:59.370Z,1.02
2022-08-24T14:26:40.447Z,1.27
2022-08-24T14:28:45.803Z,1.45
2022-08-24T14:30:54.342Z,0.68
2022-08-24T14:33:13.468Z,1.40
2022-08-24T14:35:27.791Z,1.20
2022-08-24T14:39:49.234Z,1.00
2022-08-24T14:41:59.645Z,0.80
2022-08-24T14:44:35.605Z,1.02
2022-08-24T14:46:50.278Z,1.25
2022-08-24T14:49:04.274Z,0.68
2022-08-24T14:51:20.531Z,2.88
2022-08-24T14:53:45.599Z,0.70
2022-08-24T14:56:02.513Z,0.80
2022-08-24T14:58:29.002Z,1.15
2022-08-24T15:00:57.844Z,1.48
2022-08-24T15:03:30.094Z,1.00
2022-08-24T15:05:43.174Z,1.10
2022-08-24T15:07:56.249Z,0.75
2022-08-24T15:10:02.505Z,0.80
2022-08-24T15:12:15.678Z,0.90
2022-08-24T15:14:37.345Z,0.90
2022-08-24T15:16:54.092Z,0.75
2022-08-24T15:19:08.307Z,1.00
2022-08-24T15:21:31.538Z,0.90
2022-08-24T15:23:54.463Z,2.83
2022-08-24T15:26:06.049Z,1.30
2022-08-24T15:28:13.605Z,0.65
2022-08-24T15:30:23.796Z,1.17
2022-08-24T15:32:45.333Z,0.60
2022-08-24T15:34:53.392Z,0.80
2022-08-24T15:37:01.917Z,1.50
2022-08-24T15:39:07.632Z,1.42
2022-08-24T15:41:15.965Z,0.90
2022-08-24T15:43:19.924Z,1.00
2022-08-24T15:45:24.412Z,1.15
2022-08-24T15:47:32.778Z,0.80
2022-08-24T15:49:46.573Z,0.80
2022-08-24T15:51:53.549Z,1.05
2022-08-24T15:53:57.332Z,0.90
2022-08-24T15:56:23.787Z,0.77
2022-08-24T15:58:33.536Z,0.80
2022-08-24T16:00:55.975Z,0.90
2022-08-24T16:03:21.925Z,0.70
2022-08-24T16:05:38.786Z,2.35
2022-08-24T16:08:07.649Z,1.20
2022-08-24T16:10:14.415Z,1.08
2022-08-24T16:12:24.408Z,0.75
2022-08-24T16:14:31.206Z,1.33
2022-08-24T16:16:40.646Z,1.40
2022-08-24T16:18:51.603Z,0.90
2022-08-24T16:20:59.167Z,1.08
2022-08-24T16:23:06.420Z,0.90
2022-08-24T16:25:19.709Z,0.80
2022-08-24T16:31:53.209Z,0.93
2022-08-24T16:34:14.301Z,1.00
2022-08-24T16:36:20.845Z,1.08
2022-08-24T16:38:24.705Z,1.20
2022-08-24T16:40:31.489Z,1.20
2022-08-24T16:42:36.456Z,1.15
2022-08-24T16:44:42.890Z,0.90
2022-08-24T16:46:48.060Z,1.27
2022-08-24T16:48:54.338Z,1.10
2022-08-24T16:50:59.522Z,0.70
2022-08-24T16:53:03.008Z,1.58
2022-08-24T16:55:07.566Z,0.90
2022-08-24T16:57:15.473Z,1.08
2022-08-24T16:59:25.545Z,0.90
2022-08-24T17:01:29.096Z,1.58
2022-08-24T17:03:33.305Z,0.90
2022-08-24T17:05:37.124Z,0.93
2022-08-24T17:07:45.357Z,0.93
2022-08-24T17:09:50.062Z,0.88
2022-08-24T17:11:53.691Z,0.90
2022-08-24T17:13:57.302Z,0.90
2022-08-24T17:16:01.058Z,1.00
2022-08-24T17:18:07.780Z,0.95
2022-08-24T17:20:12.381Z,0.90
2022-08-24T17:22:16.616Z,0.93
2022-08-24T17:24:23.755Z,1.10
2022-08-24T17:26:28.013Z,1.13
2022-08-24T17:28:31.694Z,1.40
2022-08-24T17:30:35.560Z,2.10
2022-08-24T17:32:39.535Z,1.23
2022-08-24T17:34:43.167Z,1.10
2022-08-24T17:36:47.033Z,1.40
2022-08-24T17:38:56.045Z,1.20
2022-08-24T17:41:02.256Z,1.05
2022-08-24T17:43:05.877Z,1.10
2022-08-24T17:45:10.433Z,1.10
2022-08-24T17:47:15.632Z,1.20
2022-08-24T17:49:19.754Z,1.30
2022-08-24T17:51:23.607Z,1.10
2022-08-24T17:53:27.526Z,1.35
2022-08-24T17:55:31.137Z,0.65
2022-08-24T17:57:36.690Z,1.13
2022-08-24T17:59:40.634Z,0.88
2022-08-24T18:01:44.651Z,1.45
2022-08-24T18:03:48.329Z,1.23
2022-08-24T18:05:52.753Z,1.13
2022-08-24T18:07:57.621Z,1.00
2022-08-24T18:10:01.478Z,1.27
2022-08-24T18:12:06.512Z,1.27
2022-08-24T18:14:11.638Z,1.63
2022-08-24T18:16:18.911Z,1.00
2022-08-24T18:18:22.539Z,0.90
2022-08-24T18:20:28.372Z,1.73
2022-08-24T18:22:32.062Z,1.17
2022-08-24T18:24:36.192Z,1.45
2022-08-24T18:26:41.048Z,1.25
2022-08-24T18:28:51.643Z,2.10
2022-08-24T18:30:56.843Z,1.10
2022-08-24T18:33:01.917Z,1.20
2022-08-24T18:35:06.052Z,1.40
2022-08-24T18:37:09.961Z,1.30
2022-08-24T18:39:13.583Z,2.05
2022-08-24T18:41:17.481Z,1.67
2022-08-24T18:43:24.068Z,1.63
2022-08-24T18:45:32.617Z,1.02
2022-08-24T18:47:38.102Z,1.27
2022-08-24T18:49:41.792Z,1.52
2022-08-24T18:51:48.289Z,2.20
2022-08-24T18:53:53.426Z,1.73
2022-08-24T18:55:57.766Z,2.25
2022-08-24T18:58:03.375Z,4.10
2022-08-24T19:00:10.049Z,2.17
2022-08-24T19:02:33.790Z,2.30
2022-08-24T19:04:43.944Z,2.08
2022-08-24T19:06:47.799Z,1.98
2022-08-24T19:08:51.795Z,2.90
2022-08-24T19:10:56.084Z,1.85
2022-08-24T19:13:02.361Z,1.50
2022-08-24T19:15:06.999Z,2.42
2022-08-24T19:17:10.647Z,2.08
2022-08-24T19:19:14.253Z,2.15
2022-08-24T19:21:20.713Z,1.63
2022-08-24T19:23:26.613Z,2.35
2022-08-24T19:25:30.401Z,2.05
2022-08-24T19:27:34.568Z,2.05
2022-08-24T19:29:55.164Z,2.28
2022-08-24T19:31:59.405Z,2.83
2022-08-24T19:34:03.783Z,2.30
2022-08-24T19:36:07.896Z,2.35
2022-08-24T19:38:12.876Z,1.75
2022-08-24T19:40:18.776Z,1.98
2022-08-24T19:42:23.915Z,1.98
2022-08-24T19:44:51.689Z,2.58
2022-08-24T19:46:55.924Z,1.77
2022-08-24T19:48:59.873Z,1.80
2022-08-24T19:51:04.892Z,1.90
2022-08-24T19:53:10.443Z,2.03
2022-08-24T19:55:17.606Z,2.05
2022-08-24T19:57:42.130Z,2.80
2022-08-24T19:59:46.542Z,3.53
2022-08-24T20:01:50.537Z,2.63
2022-08-24T20:03:54.615Z,2.58
2022-08-24T20:05:58.427Z,2.60
2022-08-24T20:08:03.726Z,3.35
2022-08-24T20:10:12.806Z,3.10
2022-08-24T20:12:18.250Z,3.67
2022-08-24T20:14:21.946Z,3.85
2022-08-24T20:16:29.729Z,4.88
2022-08-24T20:18:35.412Z,4.75
2022-08-24T20:20:39.517Z,4.40
2022-08-24T20:22:43.824Z,3.35
2022-08-24T20:24:47.627Z,3.33
2022-08-24T20:26:51.247Z,3.97
2022-08-24T20:28:59.099Z,3.53
2022-08-24T20:31:02.973Z,3.70
2022-08-24T20:33:11.258Z,3.92
2022-08-24T20:35:15.291Z,3.83
2022-08-24T20:37:22.925Z,3.40
2022-08-24T20:39:28.953Z,3.20
2022-08-24T20:41:32.591Z,3.55
2022-08-24T20:43:36.492Z,3.60
2022-08-24T20:45:41.918Z,3.75
2022-08-24T20:47:50.942Z,3.65
2022-08-24T20:49:54.650Z,3.83
2022-08-24T20:51:58.450Z,4.00
2022-08-24T20:54:02.768Z,4.25
2022-08-24T20:56:12.002Z,4.57
2022-08-24T20:58:19.203Z,4.05
2022-08-24T21:00:24.878Z,4.10
2022-08-24T21:02:30.492Z,4.22
2022-08-24T21:04:34.370Z,3.97
2022-08-24T21:06:39.125Z,3.80
2022-08-24T21:08:45.272Z,3.88
2022-08-24T21:10:49.093Z,3.35
2022-08-24T21:12:53.439Z,3.25
2022-08-24T21:14:57.036Z,3.75
2022-08-24T21:17:01.101Z,4.25
2022-08-24T21:19:06.118Z,4.78
2022-08-24T21:21:10.951Z,19.80
2022-08-24T21:23:14.545Z,4.45
2022-08-24T21:25:18.848Z,3.72
2022-08-24T21:27:22.474Z,3.70
2022-08-24T21:29:25.957Z,4.95
2022-08-24T21:31:30.264Z,4.57
2022-08-24T21:33:52.033Z,3.42
2022-08-24T21:35:57.108Z,3.13
2022-08-24T21:38:01.079Z,3.13
2022-08-24T21:40:06.634Z,2.97
2022-08-24T21:42:10.780Z,2.55
2022-08-24T21:44:14.445Z,3.35
2022-08-24T21:46:18.675Z,2.40
2022-08-24T21:48:22.615Z,2.80
2022-08-24T21:50:26.828Z,4.15
2022-08-24T21:52:32.449Z,2.15
2022-08-24T21:54:36.359Z,2.90
2022-08-24T21:56:40.695Z,2.40
2022-08-24T21:58:45.670Z,3.15
2022-08-24T22:00:49.614Z,4.20
2022-08-24T22:02:53.293Z,2.58
2022-08-24T22:04:57.541Z,2.97
2022-08-24T22:07:02.589Z,2.65
2022-08-24T22:09:08.643Z,2.95
2022-08-24T22:11:13.094Z,2.90
2022-08-24T22:13:16.965Z,2.67
2022-08-24T22:15:23.315Z,2.55
2022-08-24T22:17:27.193Z,2.60
2022-08-24T22:19:30.963Z,2.47
2022-08-24T22:21:36.499Z,2.42
2022-08-24T22:23:41.081Z,2.50
2022-08-24T22:25:47.088Z,2.60
2022-08-24T22:27:51.101Z,2.35
2022-08-24T22:29:54.841Z,3.25
2022-08-24T22:31:58.524Z,2.53
2022-08-24T22:34:04.443Z,3.45
2022-08-24T22:36:10.936Z,2.97
2022-08-24T22:38:15.005Z,3.13
2022-08-24T22:40:19.256Z,3.00
2022-08-24T22:42:24.599Z,2.70
2022-08-24T22:44:29.187Z,2.75
2022-08-24T22:46:33.413Z,3.15
2022-08-24T22:48:37.680Z,2.90
2022-08-24T22:50:46.170Z,3.00
2022-08-24T22:52:49.844Z,3.10
2022-08-24T22:54:56.717Z,4.05
2022-08-24T22:57:00.446Z,5.30
2022-08-24T22:59:08.699Z,4.38
2022-08-24T23:01:20.128Z,4.15
2022-08-24T23:03:24.147Z,3.85
2022-08-24T23:05:27.990Z,3.60
2022-08-24T23:07:31.700Z,3.70
2022-08-24T23:09:44.789Z,3.28
2022-08-24T23:11:49.348Z,3.20
2022-08-24T23:13:53.296Z,3.15
2022-08-24T23:15:58.617Z,3.20
2022-08-24T23:18:23.733Z,3.08
2022-08-24T23:20:26.243Z,3.90
2022-08-24T23:22:32.718Z,3.90
2022-08-24T23:24:37.300Z,4.95
2022-08-24T23:26:42.098Z,4.38
2022-08-24T23:28:50.190Z,4.68
2022-08-24T23:30:54.167Z,4.82
2022-08-24T23:32:59.644Z,5.60
2022-08-24T23:35:03.914Z,5.00
2022-08-24T23:37:08.131Z,5.15
2022-08-24T23:39:14.393Z,5.03
2022-08-24T23:41:20.254Z,5.03
2022-08-24T23:43:23.918Z,4.53
2022-08-24T23:45:28.316Z,5.10
2022-08-24T23:47:35.942Z,5.13
2022-08-24T23:49:42.054Z,4.57
2022-08-24T23:51:45.807Z,5.20
2022-08-24T23:53:50.761Z,5.40
2022-08-24T23:55:55.370Z,4.55
2022-08-24T23:57:59.241Z,5.25
